Time;durP1;ratioP1;P1;durP2;ratioP2;P2;SDS_P1;SDS_P2;PMS_P1;PMS_P2;Temp;Humidity;BMP_temperature;BMP_pressure;BME280_temperature;BME280_humidity;BME280_pressure;Samples;Min_cycle;Max_cycle;Signal;HPM_P1;HPM_P2
2021/12/17 00:01:11;;;;;;;10.40;9.90;;;8.40;78.50;;;;;;4997998;28;20426;-79
2021/12/17 00:03:47;;;;;;;10.10;9.60;;;8.40;78.50;;;;;;4989819;28;20034;-79
2021/12/17 00:06:41;;;;;;;10.50;9.90;;;8.40;78.50;;;;;;4997174;28;20127;-79
2021/12/17 00:09:04;;;;;;;10.13;9.63;;;8.40;78.50;;;;;;5008457;28;20041;-79
2021/12/17 00:11:30;;;;;;;10.60;10.00;;;8.40;78.50;;;;;;5042026;28;20034;-79
2021/12/17 00:13:57;;;;;;;10.75;10.25;;;8.40;78.50;;;;;;5012333;28;20025;-79
2021/12/17 00:16:28;;;;;;;11.27;10.73;;;8.30;78.50;;;;;;5005527;28;20434;-79
2021/12/17 00:48:46;;;;;;;10.60;10.10;;;8.10;78.80;;;;;;5008553;28;20498;-78
2021/12/17 00:53:43;;;;;;;;;;;8.00;79.50;;;;;;4996772;28;20045;-79
2021/12/17 00:56:09;;;;;;;9.55;9.15;;;8.00;78.80;;;;;;5007850;28;19909;-79
2021/12/17 00:58:36;;;;;;;9.40;9.00;;;8.00;78.80;;;;;;5005272;28;20044;-79
2021/12/17 01:01:02;;;;;;;11.00;10.20;;;8.00;78.90;;;;;;5006816;28;20053;-78
2021/12/17 01:03:28;;;;;;;10.20;9.70;;;7.90;79.00;;;;;;5000520;28;20379;-79
2021/12/17 01:05:54;;;;;;;11.00;10.40;;;7.90;79.00;;;;;;4992630;28;20069;-79
2021/12/17 01:08:20;;;;;;;10.37;9.87;;;7.90;79.10;;;;;;5004322;28;20035;-79
2021/12/17 01:10:50;;;;;;;9.67;9.27;;;7.90;79.10;;;;;;4992386;28;20042;-79
2021/12/17 01:13:16;;;;;;;10.50;9.90;;;7.80;79.10;;;;;;5005895;28;20053;-79
2021/12/17 01:15:43;;;;;;;10.40;9.90;;;7.80;79.20;;;;;;5005363;28;20510;-79
2021/12/17 01:18:13;;;;;;;10.10;9.60;;;7.80;79.30;;;;;;5006811;28;20030;-78
2021/12/17 01:35:20;;;;;;;11.77;11.27;;;7.70;79.40;;;;;;5009353;28;20498;-79
2021/12/17 01:36:38;;;;;;;11.03;10.53;;;7.60;80.30;;;;;;5001534;28;20045;-78
2021/12/17 01:44:16;;;;;;;11.33;10.73;;;7.60;79.70;;;;;;5001139;28;20045;-78
2021/12/17 01:46:42;;;;;;;10.20;9.70;;;7.50;79.70;;;;;;5005027;28;20060;-78
2021/12/17 01:59:54;;;;;;;10.70;10.20;;;7.50;79.90;;;;;;5002195;28;20521;-78
2021/12/17 02:02:20;;;;;;;9.77;9.27;;;7.40;79.90;;;;;;5009836;28;20281;-78
2021/12/17 02:04:46;;;;;;;11.90;11.10;;;7.40;79.90;;;;;;4998635;28;20509;-78
2021/12/17 02:07:12;;;;;;;9.80;9.40;;;7.40;80.00;;;;;;5009072;28;20030;-78
2021/12/17 02:20:40;;;;;;;9.87;9.17;;;7.30;80.20;;;;;;5012877;28;20404;-78
2021/12/17 02:29:18;;;;;;;8.70;8.30;;;7.20;80.10;;;;;;5010666;28;20041;-78
2021/12/17 02:31:44;;;;;;;8.60;8.20;;;7.20;80.10;;;;;;5001345;28;20042;-78
2021/12/17 02:34:41;;;;;;;8.60;8.10;;;7.20;80.20;;;;;;4995216;28;20054;-78
2021/12/17 02:37:03;;;;;;;8.20;7.80;;;7.20;80.20;;;;;;5007463;28;20037;-78
2021/12/17 02:47:27;;;;;;;8.87;8.27;;;7.10;80.30;;;;;;5009636;28;20045;-78
2021/12/17 02:49:53;;;;;;;8.17;7.77;;;7.00;80.30;;;;;;5005208;28;20490;-78
2021/12/17 02:52:19;;;;;;;8.03;7.63;;;7.00;80.30;;;;;;4995316;28;20045;-78
2021/12/17 02:54:45;;;;;;;8.40;7.60;;;7.00;80.40;;;;;;5007487;28;20030;-78
2021/12/17 02:57:11;;;;;;;9.90;8.47;;;7.00;80.40;;;;;;5008559;28;20395;-78
2021/12/17 02:59:38;;;;;;;8.00;7.60;;;7.00;80.40;;;;;;5009838;28;20030;-78
2021/12/17 03:02:07;;;;;;;8.10;7.70;;;7.00;80.40;;;;;;4994341;28;20041;-78
2021/12/17 03:04:34;;;;;;;8.10;7.70;;;7.00;80.50;;;;;;4989708;28;20050;-78
2021/12/17 03:07:00;;;;;;;8.50;7.90;;;7.00;80.50;;;;;;5004348;28;20090;-78
2021/12/17 03:09:46;;;;;;;8.37;7.97;;;7.00;80.50;;;;;;5010243;28;20040;-78
2021/12/17 03:12:20;;;;;;;8.20;7.80;;;7.00;80.50;;;;;;5009684;28;20403;-78
2021/12/17 03:15:02;;;;;;;9.10;8.60;;;7.00;80.50;;;;;;4978462;28;20053;-78
2021/12/17 03:18:08;;;;;;;9.32;8.85;;;6.90;80.50;;;;;;5015963;28;20034;-78
2021/12/17 03:25:43;;;;;;;7.70;7.40;;;7.00;80.60;;;;;;4990793;28;20034;-78
2021/12/17 03:28:09;;;;;;;9.40;8.80;;;6.90;80.60;;;;;;4988670;28;20381;-78
2021/12/17 03:30:35;;;;;;;9.03;8.53;;;6.90;80.60;;;;;;5022164;28;20041;-78
2021/12/17 03:33:01;;;;;;;10.97;8.87;;;6.90;80.60;;;;;;4993633;28;20038;-78
2021/12/17 03:35:27;;;;;;;8.93;8.33;;;6.90;80.60;;;;;;4995227;28;21718;-78
2021/12/17 03:37:53;;;;;;;8.53;8.03;;;6.90;80.60;;;;;;5012876;28;20043;-78
2021/12/17 03:40:20;;;;;;;8.77;8.27;;;6.90;80.60;;;;;;5000239;28;20058;-78
2021/12/17 03:42:49;;;;;;;8.70;8.30;;;6.90;80.60;;;;;;5018777;28;20026;-78
2021/12/17 03:45:16;;;;;;;8.43;8.03;;;6.90;80.60;;;;;;4993073;28;20050;-78
2021/12/17 03:47:42;;;;;;;18.97;8.47;;;6.90;80.70;;;;;;4992862;28;20415;-78
2021/12/17 03:50:10;;;;;;;8.53;8.13;;;6.80;80.60;;;;;;4974521;28;20049;-78
2021/12/17 03:52:36;;;;;;;8.77;8.27;;;6.80;80.60;;;;;;5006981;28;20394;-78
2021/12/17 03:55:02;;;;;;;7.67;7.37;;;6.80;80.60;;;;;;4995737;28;20044;-78
2021/12/17 03:57:28;;;;;;;8.93;8.50;;;6.80;80.70;;;;;;5008269;28;20048;-78
2021/12/17 03:59:54;;;;;;;9.17;8.60;;;6.80;80.70;;;;;;5011406;28;20038;-78
2021/12/17 04:02:21;;;;;;;9.10;8.70;;;6.80;80.70;;;;;;5008275;28;20038;-78
2021/12/17 04:04:47;;;;;;;9.20;8.70;;;6.80;80.80;;;;;;5007212;28;20034;-78
2021/12/17 04:07:13;;;;;;;9.10;8.60;;;6.80;80.80;;;;;;4991519;28;20423;-78
2021/12/17 04:09:39;;;;;;;9.10;8.70;;;6.80;80.80;;;;;;5004978;28;20049;-78
2021/12/17 04:12:10;;;;;;;9.37;8.87;;;6.70;80.80;;;;;;5008086;28;20498;-78
2021/12/17 04:14:47;;;;;;;;;;;6.70;80.90;;;;;;5042175;28;20041;-78
2021/12/17 04:17:21;;;;;;;8.90;8.50;;;6.70;80.90;;;;;;5026536;28;19914;-78
2021/12/17 04:19:47;;;;;;;13.20;10.07;;;6.70;80.90;;;;;;5029478;28;20384;-78
2021/12/17 04:22:13;;;;;;;9.50;9.10;;;6.70;81.00;;;;;;4991730;28;20507;-78
2021/12/17 04:24:39;;;;;;;9.70;9.20;;;6.60;81.00;;;;;;5005993;28;20026;-78
2021/12/17 04:27:06;;;;;;;10.27;9.77;;;6.60;81.10;;;;;;5008221;28;20045;-78
2021/12/17 04:29:39;;;;;;;9.57;9.07;;;6.60;81.10;;;;;;5025243;28;20501;-78
2021/12/17 04:32:05;;;;;;;9.73;9.23;;;6.60;81.10;;;;;;4990910;28;20414;-78
2021/12/17 04:34:32;;;;;;;9.90;9.33;;;6.60;81.20;;;;;;4997826;28;20479;-78
2021/12/17 04:36:58;;;;;;;9.73;9.23;;;6.60;81.20;;;;;;4972411;28;20516;-78
2021/12/17 04:39:24;;;;;;;9.37;8.90;;;6.60;81.20;;;;;;4993167;28;20049;-78
2021/12/17 04:44:27;;;;;;;10.40;9.70;;;6.60;81.20;;;;;;4999058;28;20030;-78
2021/12/17 04:57:46;;;;;;;8.70;8.30;;;6.60;81.10;;;;;;5011375;28;20415;-78
2021/12/17 05:00:17;;;;;;;10.30;9.43;;;6.60;81.20;;;;;;5009855;28;20049;-80
2021/12/17 05:02:46;;;;;;;10.15;9.63;;;6.60;81.20;;;;;;4978252;28;20049;-78
2021/12/17 05:05:13;;;;;;;9.70;9.13;;;6.60;81.10;;;;;;4995139;28;20034;-78
2021/12/17 05:07:44;;;;;;;10.03;9.47;;;6.60;81.10;;;;;;5009041;28;20034;-78
2021/12/17 05:20:50;;;;;;;9.80;9.30;;;6.50;81.00;;;;;;4998725;28;20057;-78
2021/12/17 05:23:19;;;;;;;9.93;9.43;;;6.60;81.10;;;;;;5006874;28;20495;-78
2021/12/17 05:25:45;;;;;;;11.10;10.47;;;6.50;81.00;;;;;;5009369;28;20034;-78
2021/12/17 05:28:11;;;;;;;11.17;10.57;;;6.60;81.10;;;;;;5008992;28;20026;-78
2021/12/17 05:30:40;;;;;;;10.80;10.20;;;6.60;81.10;;;;;;5006501;28;20410;-78
2021/12/17 05:33:06;;;;;;;10.37;9.77;;;6.60;81.10;;;;;;5008525;28;20042;-78
2021/12/17 05:35:32;;;;;;;10.47;9.97;;;6.50;81.00;;;;;;5013807;28;20394;-78
2021/12/17 05:37:58;;;;;;;11.77;11.17;;;6.50;81.00;;;;;;5015248;28;20022;-78
2021/12/17 05:40:24;;;;;;;11.37;10.30;;;6.60;81.10;;;;;;4991038;28;20053;-78
2021/12/17 05:42:55;;;;;;;10.57;9.80;;;6.50;81.10;;;;;;5007035;28;20033;-78
2021/12/17 05:45:22;;;;;;;9.40;8.80;;;6.50;81.10;;;;;;5013333;28;20025;-80
2021/12/17 05:47:48;;;;;;;10.13;9.43;;;6.60;81.20;;;;;;5000912;28;20479;-78
2021/12/17 05:50:14;;;;;;;10.90;10.30;;;6.60;81.10;;;;;;5013993;28;20050;-78
2021/12/17 05:52:40;;;;;;;10.20;9.70;;;6.60;81.10;;;;;;5012590;28;20030;-78
2021/12/17 05:55:07;;;;;;;10.63;10.13;;;6.60;81.10;;;;;;4994154;28;20074;-78
2021/12/17 05:57:33;;;;;;;11.40;10.80;;;6.60;81.10;;;;;;5012386;28;20030;-79
2021/12/17 05:59:59;;;;;;;10.33;9.83;;;6.60;81.20;;;;;;5011905;28;20061;-79
2021/12/17 06:02:25;;;;;;;11.37;10.67;;;6.50;81.10;;;;;;5013784;28;20530;-78
2021/12/17 06:04:51;;;;;;;9.53;9.03;;;6.50;81.10;;;;;;5013169;28;20033;-79
2021/12/17 06:07:25;;;;;;;11.73;10.90;;;6.50;81.20;;;;;;5013070;28;20038;-81
2021/12/17 06:09:52;;;;;;;9.80;9.20;;;6.50;81.20;;;;;;5011887;28;20034;-81
2021/12/17 06:12:18;;;;;;;10.13;9.57;;;6.50;81.20;;;;;;5006035;28;20046;-82
2021/12/17 06:14:44;;;;;;;10.37;9.63;;;6.40;81.20;;;;;;5024062;28;20109;-83
2021/12/17 06:17:10;;;;;;;9.90;9.30;;;6.40;81.20;;;;;;4996564;28;20034;-82
2021/12/17 06:19:36;;;;;;;9.57;9.07;;;6.40;81.30;;;;;;5012839;28;20049;-81
2021/12/17 06:22:03;;;;;;;10.30;9.73;;;6.40;81.30;;;;;;5012783;28;20053;-81
2021/12/17 06:24:29;;;;;;;10.97;10.13;;;6.40;81.20;;;;;;5012723;28;20045;-82
2021/12/17 06:26:55;;;;;;;10.27;9.67;;;6.40;81.20;;;;;;5011765;28;20033;-82
2021/12/17 06:29:21;;;;;;;10.40;9.80;;;6.40;81.20;;;;;;5012911;28;20026;-81
2021/12/17 06:31:47;;;;;;;11.30;10.47;;;6.40;81.20;;;;;;5012647;28;20037;-81
2021/12/17 06:34:13;;;;;;;9.67;9.17;;;6.40;81.20;;;;;;5010895;28;20046;-80
2021/12/17 06:36:39;;;;;;;9.80;9.30;;;6.30;81.20;;;;;;5011332;28;20041;-82
2021/12/17 06:39:05;;;;;;;10.57;10.07;;;6.30;81.20;;;;;;5011616;28;20044;-80
2021/12/17 06:41:31;;;;;;;10.13;9.57;;;6.30;81.20;;;;;;4978520;28;20526;-80
2021/12/17 06:43:59;;;;;;;10.50;9.80;;;6.30;81.30;;;;;;5007701;28;20037;-80
2021/12/17 06:46:45;;;;;;;9.87;9.30;;;6.30;81.20;;;;;;5007207;28;20492;-80
2021/12/17 06:49:25;;;;;;;9.20;8.70;;;6.40;81.30;;;;;;5012454;28;20053;-80
2021/12/17 06:55:01;;;;;;;9.97;9.40;;;6.30;81.20;;;;;;5011907;28;20033;-81
2021/12/17 07:00:20;;;;;;;15.03;14.13;;;6.30;81.20;;;;;;5011701;28;20052;-82
2021/12/17 07:35:47;;;;;;;11.93;11.13;;;6.30;81.10;;;;;;4932207;29;20154;-80
2021/12/17 07:40:58;;;;;;;10.53;9.93;;;6.20;81.10;;;;;;4981544;28;20041;-82
2021/12/17 07:43:41;;;;;;;10.83;10.23;;;6.30;81.10;;;;;;4987842;28;20105;-81
2021/12/17 07:46:11;;;;;;;11.10;10.53;;;6.20;81.10;;;;;;5010804;28;20034;-80
2021/12/17 07:48:37;;;;;;;9.90;9.40;;;6.20;81.10;;;;;;5009272;28;20034;-81
2021/12/17 07:51:05;;;;;;;9.13;8.67;;;6.20;81.10;;;;;;5008086;28;20037;-79
2021/12/17 07:53:32;;;;;;;9.70;9.20;;;6.30;81.20;;;;;;5001997;28;20049;-80
2021/12/17 07:56:00;;;;;;;9.80;9.20;;;6.20;81.10;;;;;;4996478;28;20423;-81
2021/12/17 07:58:27;;;;;;;10.53;9.97;;;6.30;81.10;;;;;;5007435;28;20036;-82
2021/12/17 08:00:54;;;;;;;12.40;11.37;;;6.30;81.20;;;;;;5004566;28;20045;-81
2021/12/17 08:03:20;;;;;;;10.97;10.37;;;6.20;81.10;;;;;;5032806;28;20030;-82
2021/12/17 08:05:46;;;;;;;10.77;10.27;;;6.20;81.10;;;;;;5010687;28;20037;-81
2021/12/17 08:08:12;;;;;;;10.03;9.53;;;6.20;81.10;;;;;;5002404;28;20083;-81
2021/12/17 08:10:38;;;;;;;10.17;9.67;;;6.30;81.20;;;;;;5040154;28;20030;-81
2021/12/17 08:13:07;;;;;;;11.97;11.37;;;6.30;81.20;;;;;;5002703;28;20030;-84
2021/12/17 08:15:44;;;;;;;9.67;9.07;;;6.30;81.20;;;;;;5009018;28;20403;-81
2021/12/17 08:26:14;;;;;;;10.40;9.90;;;6.30;81.20;;;;;;5010895;28;20037;-80
2021/12/17 08:28:54;;;;;;;10.73;9.90;;;6.30;81.20;;;;;;5008421;28;20037;-79
2021/12/17 08:31:20;;;;;;;11.03;10.33;;;6.40;81.40;;;;;;5008654;28;20030;-80
2021/12/17 08:33:46;;;;;;;13.33;12.53;;;6.40;81.30;;;;;;5005907;28;20376;-83
2021/12/17 08:36:14;;;;;;;11.30;10.57;;;6.40;81.30;;;;;;5006316;28;20031;-84
2021/12/17 08:38:42;;;;;;;11.53;10.93;;;6.40;81.40;;;;;;5025793;28;20493;-83
2021/12/17 08:41:09;;;;;;;11.10;10.40;;;6.50;81.50;;;;;;5011231;28;20038;-81
2021/12/17 08:43:35;;;;;;;9.43;9.00;;;6.60;81.50;;;;;;5008350;28;20022;-82
2021/12/17 08:46:02;;;;;;;11.40;10.77;;;6.80;82.30;;;;;;4992929;28;20033;-82
2021/12/17 08:48:28;;;;;;;8.43;8.03;;;6.90;81.30;;;;;;5011258;28;20025;-81
2021/12/17 08:50:54;;;;;;;9.50;8.93;;;7.00;81.10;;;;;;5010259;28;20022;-80
2021/12/17 08:53:20;;;;;;;9.17;8.57;;;7.10;81.00;;;;;;5004935;28;20479;-81
2021/12/17 08:55:46;;;;;;;9.90;9.20;;;7.10;80.90;;;;;;5009324;28;20034;-81
2021/12/17 08:58:14;;;;;;;9.87;9.37;;;7.00;81.00;;;;;;5007488;28;20038;-83
2021/12/17 09:00:43;;;;;;;9.63;9.17;;;7.00;81.00;;;;;;4999698;28;20061;-82
2021/12/17 09:03:10;;;;;;;10.27;9.53;;;7.00;81.00;;;;;;4996575;28;20078;-84
2021/12/17 09:05:37;;;;;;;10.03;9.53;;;7.00;81.10;;;;;;5025421;28;20993;-81
2021/12/17 09:08:04;;;;;;;9.87;9.30;;;7.10;81.20;;;;;;5000660;28;20365;-81
2021/12/17 09:10:31;;;;;;;9.97;9.10;;;7.10;81.20;;;;;;5013752;28;20037;-81
2021/12/17 09:12:57;;;;;;;8.93;8.53;;;7.10;81.20;;;;;;5005182;28;20037;-81
2021/12/17 09:15:23;;;;;;;10.60;9.87;;;7.20;82.00;;;;;;5009142;28;20042;-81
2021/12/17 09:17:49;;;;;;;9.63;8.97;;;7.20;81.30;;;;;;5000267;28;20026;-83
2021/12/17 09:20:15;;;;;;;10.50;9.90;;;7.20;81.30;;;;;;5004021;28;20050;-77
2021/12/17 09:22:41;;;;;;;11.10;10.50;;;7.30;81.30;;;;;;5027115;28;20092;-79
2021/12/17 09:25:08;;;;;;;9.03;8.63;;;7.40;81.40;;;;;;5003924;28;20034;-78
2021/12/17 09:27:34;;;;;;;12.00;10.80;;;7.50;81.40;;;;;;5035132;28;20033;-77
2021/12/17 09:30:00;;;;;;;10.73;10.20;;;7.60;81.40;;;;;;5001282;28;20036;-77
2021/12/17 09:32:26;;;;;;;9.90;9.30;;;7.70;81.20;;;;;;5002959;28;20057;-79
2021/12/17 09:34:52;;;;;;;9.60;8.93;;;7.80;80.90;;;;;;5013481;28;20050;-78
2021/12/17 09:37:18;;;;;;;9.57;9.07;;;7.90;80.90;;;;;;5008596;28;20033;-79
2021/12/17 09:39:44;;;;;;;9.77;9.27;;;7.90;80.90;;;;;;5011514;28;20034;-78
2021/12/17 09:42:10;;;;;;;9.57;9.07;;;7.90;80.90;;;;;;5013304;28;20407;-79
2021/12/17 09:44:37;;;;;;;10.00;9.50;;;7.90;80.90;;;;;;4998896;28;20411;-81
2021/12/17 09:47:03;;;;;;;9.93;9.43;;;8.00;80.90;;;;;;4992454;28;20034;-82
2021/12/17 09:49:29;;;;;;;13.50;8.90;;;8.00;80.90;;;;;;5010922;28;20034;-77
2021/12/17 09:51:56;;;;;;;9.27;8.88;;;8.10;80.90;;;;;;5005973;28;20034;-76
2021/12/17 09:54:22;;;;;;;9.50;9.00;;;8.10;80.80;;;;;;5004479;28;20368;-76
2021/12/17 09:56:48;;;;;;;13.43;9.55;;;8.20;80.80;;;;;;5010419;28;20045;-77
2021/12/17 09:59:14;;;;;;;10.55;9.95;;;8.20;80.80;;;;;;5010063;28;20025;-77
2021/12/17 10:01:42;;;;;;;9.10;8.70;;;8.30;80.80;;;;;;5012381;28;20049;-78
2021/12/17 10:04:27;;;;;;;9.60;9.20;;;8.30;80.80;;;;;;5008307;28;20026;-77
2021/12/17 10:06:54;;;;;;;10.87;10.20;;;8.40;80.70;;;;;;5007313;28;20033;-77
2021/12/17 10:09:20;;;;;;;11.75;11.15;;;8.50;80.60;;;;;;4995715;28;20048;-80
2021/12/17 10:12:06;;;;;;;13.05;11.98;;;8.60;80.50;;;;;;4994142;28;20053;-80
2021/12/17 10:14:32;;;;;;;12.25;11.55;;;8.80;80.20;;;;;;5010778;28;20098;-80
2021/12/17 10:17:09;;;;;;;14.00;12.95;;;9.20;79.70;;;;;;5012943;28;20037;-80
2021/12/17 10:19:53;;;;;;;13.57;12.88;;;9.50;78.80;;;;;;4985669;28;20038;-83
2021/12/17 10:22:20;;;;;;;12.30;11.70;;;9.80;77.90;;;;;;4993741;28;20066;-83
2021/12/17 10:24:55;;;;;;;10.80;10.20;;;10.00;77.30;;;;;;5007114;28;20022;-80
2021/12/17 10:27:23;;;;;;;25.00;23.80;;;10.00;76.90;;;;;;5006956;28;20030;-82
2021/12/17 10:29:49;;;;;;;11.20;10.02;;;10.10;76.90;;;;;;5011215;28;20042;-84
2021/12/17 10:32:19;;;;;;;12.50;11.68;;;10.10;76.90;;;;;;5012082;28;20061;-86
2021/12/17 10:35:01;;;;;;;18.88;18.00;;;10.00;77.20;;;;;;4986755;28;20042;-84
2021/12/17 10:37:44;;;;;;;11.70;11.13;;;9.90;77.40;;;;;;5007871;28;20041;-80
2021/12/17 10:40:21;;;;;;;14.23;13.55;;;9.80;77.70;;;;;;5010063;28;20044;-83
2021/12/17 10:42:58;;;;;;;18.48;17.58;;;9.70;78.10;;;;;;5009431;28;20045;-82
2021/12/17 10:45:27;;;;;;;13.48;12.77;;;9.70;78.10;;;;;;4994463;28;20057;-82
2021/12/17 10:48:19;;;;;;;19.98;18.65;;;9.90;78.00;;;;;;4995707;28;20042;-82
2021/12/17 10:50:45;;;;;;;19.65;18.67;;;10.00;77.60;;;;;;5011169;28;20037;-81
2021/12/17 10:53:11;;;;;;;12.25;11.65;;;10.00;77.20;;;;;;5011776;28;20050;-82
2021/12/17 10:55:37;;;;;;;12.45;11.85;;;10.00;77.20;;;;;;5009855;28;20041;-83
2021/12/17 10:58:04;;;;;;;13.15;12.52;;;10.00;77.30;;;;;;5010044;28;20030;-82
2021/12/17 11:00:30;;;;;;;12.80;11.95;;;9.90;77.50;;;;;;5002376;28;20034;-83
2021/12/17 11:03:00;;;;;;;12.60;12.00;;;9.80;77.70;;;;;;5012315;28;20044;-84
2021/12/17 11:05:33;;;;;;;18.10;16.98;;;9.90;77.90;;;;;;4971940;28;20045;-80
2021/12/17 11:07:59;;;;;;;15.60;14.80;;;10.00;77.70;;;;;;5010627;28;20034;-80
2021/12/17 11:10:31;;;;;;;14.60;13.90;;;10.00;77.30;;;;;;5008968;28;20045;-79
2021/12/17 11:12:57;;;;;;;13.27;12.57;;;10.10;77.00;;;;;;5010617;28;20026;-80
2021/12/17 11:15:30;;;;;;;11.48;10.93;;;10.20;76.80;;;;;;5010438;28;20037;-78
2021/12/17 11:17:58;;;;;;;30.30;28.35;;;10.30;76.70;;;;;;4992809;28;20026;-80
2021/12/17 11:20:44;;;;;;;17.50;16.25;;;10.30;76.50;;;;;;4984556;28;20031;-81
2021/12/17 11:23:13;;;;;;;21.08;20.02;;;10.40;76.10;;;;;;5010987;28;20054;-82
2021/12/17 11:25:41;;;;;;;11.93;11.32;;;10.30;75.80;;;;;;5009416;28;20521;-82
2021/12/17 11:28:08;;;;;;;11.10;10.60;;;10.30;75.80;;;;;;5010796;28;20029;-83
2021/12/17 11:30:36;;;;;;;11.75;11.13;;;10.40;75.90;;;;;;5008314;28;20041;-84
2021/12/17 11:33:04;;;;;;;12.98;12.38;;;10.40;75.90;;;;;;5009486;28;20486;-82
2021/12/17 11:35:31;;;;;;;15.55;14.80;;;10.50;75.90;;;;;;5011459;28;20052;-81
2021/12/17 11:38:03;;;;;;;12.23;11.52;;;10.50;76.00;;;;;;5010878;28;20407;-82
2021/12/17 11:40:36;;;;;;;12.30;11.70;;;10.50;75.90;;;;;;5005012;28;20502;-80
2021/12/17 11:43:24;;;;;;;12.85;12.25;;;10.60;75.70;;;;;;5006610;28;20041;-80
2021/12/17 11:46:01;;;;;;;13.13;12.52;;;10.70;75.40;;;;;;4990094;28;20522;-79
2021/12/17 11:48:29;;;;;;;13.55;12.95;;;10.80;75.30;;;;;;5004966;28;20025;-81
2021/12/17 11:51:14;;;;;;;13.40;12.70;;;10.80;75.10;;;;;;5001626;28;20483;-81
2021/12/17 11:53:52;;;;;;;13.63;12.98;;;10.70;75.00;;;;;;5007078;28;20379;-81
2021/12/17 11:56:43;;;;;;;13.90;13.20;;;10.80;74.80;;;;;;5014581;28;20034;-81
2021/12/17 11:59:23;;;;;;;14.45;13.75;;;10.90;74.50;;;;;;4996362;28;20049;-81
2021/12/17 12:02:17;;;;;;;14.55;13.77;;;10.90;74.30;;;;;;5012098;28;20046;-78
2021/12/17 12:05:04;;;;;;;14.18;13.13;;;10.90;74.50;;;;;;5007081;28;20476;-79
2021/12/17 12:07:33;;;;;;;13.63;13.02;;;10.90;74.50;;;;;;4998452;28;20106;-79
2021/12/17 12:10:25;;;;;;;14.25;13.13;;;10.80;74.60;;;;;;5006628;28;20038;-79
2021/12/17 12:12:51;;;;;;;13.43;12.82;;;10.90;74.60;;;;;;4998730;28;20045;-79
2021/12/17 12:15:21;;;;;;;32.00;30.27;;;10.80;74.50;;;;;;4995284;28;20089;-79
2021/12/17 12:18:07;;;;;;;12.43;11.82;;;10.80;74.40;;;;;;4994887;28;20038;-79
2021/12/17 12:20:50;;;;;;;14.77;13.80;;;10.90;74.20;;;;;;5007537;28;20053;-79
2021/12/17 12:23:24;;;;;;;12.02;11.43;;;11.00;74.00;;;;;;4987074;28;20058;-79
2021/12/17 12:26:05;;;;;;;26.30;25.05;;;11.20;73.70;;;;;;5009812;28;20073;-79
2021/12/17 12:28:40;;;;;;;;;;;11.20;73.00;;;;;;5011691;28;20038;-79
2021/12/17 12:31:06;;;;;;;12.65;11.95;;;11.10;72.70;;;;;;5008525;28;20279;-79
2021/12/17 12:33:32;;;;;;;13.07;12.48;;;11.20;72.70;;;;;;4992585;28;20050;-79
2021/12/17 12:35:58;;;;;;;12.43;11.82;;;11.10;72.60;;;;;;5005797;28;20480;-79
2021/12/17 12:38:32;;;;;;;12.43;11.77;;;11.20;72.70;;;;;;5006754;28;20025;-79
2021/12/17 12:41:00;;;;;;;12.93;12.32;;;11.20;72.60;;;;;;5008151;28;20498;-79
2021/12/17 12:43:27;;;;;;;13.13;12.43;;;11.20;72.50;;;;;;5007700;28;20112;-79
2021/12/17 12:45:54;;;;;;;13.90;13.15;;;11.20;72.40;;;;;;5008349;28;20034;-79
2021/12/17 12:48:36;;;;;;;13.25;12.65;;;11.20;72.40;;;;;;5007595;28;20034;-79
2021/12/17 12:51:17;;;;;;;13.77;13.07;;;11.20;72.40;;;;;;4978274;28;20034;-79
2021/12/17 12:54:07;;;;;;;14.45;13.75;;;11.30;72.30;;;;;;5007244;28;20034;-79
2021/12/17 12:56:35;;;;;;;16.42;15.63;;;11.30;72.20;;;;;;5001390;28;20037;-79
2021/12/17 12:59:01;;;;;;;15.32;14.63;;;11.30;72.20;;;;;;4975063;28;20039;-79
2021/12/17 13:01:27;;;;;;;18.45;17.55;;;11.30;71.90;;;;;;5005345;28;20034;-79
2021/12/17 13:03:53;;;;;;;14.25;13.55;;;11.20;72.00;;;;;;5007117;28;20034;-79
2021/12/17 13:06:20;;;;;;;18.42;17.52;;;11.10;71.90;;;;;;5007061;28;20049;-79
2021/12/17 13:08:53;;;;;;;13.82;13.10;;;11.00;72.00;;;;;;4993064;28;20026;-79
2021/12/17 13:11:21;;;;;;;16.13;15.35;;;10.90;72.20;;;;;;5007415;28;20060;-79
2021/12/17 13:13:56;;;;;;;13.70;13.07;;;10.80;72.40;;;;;;5007831;28;20038;-79
2021/12/17 13:21:47;;;;;;;20.30;19.20;;;10.60;72.80;;;;;;5007447;28;20113;-79
2021/12/17 13:24:16;;;;;;;20.38;17.25;;;10.60;72.80;;;;;;4989877;28;20042;-79
2021/12/17 13:26:42;;;;;;;14.00;13.40;;;10.50;72.90;;;;;;4993188;28;20498;-78
2021/12/17 13:29:21;;;;;;;13.48;12.88;;;10.50;73.00;;;;;;5011247;28;20053;-78
2021/12/17 13:31:58;;;;;;;14.25;13.55;;;10.40;73.10;;;;;;4993743;28;20034;-78
2021/12/17 13:34:37;;;;;;;15.45;14.55;;;10.30;73.20;;;;;;5008601;28;20560;-78
2021/12/17 13:37:06;;;;;;;15.57;14.77;;;10.30;73.30;;;;;;5008332;28;20018;-78
2021/12/17 13:39:36;;;;;;;15.45;14.65;;;10.30;73.30;;;;;;5009570;28;20034;-78
2021/12/17 13:42:02;;;;;;;14.38;13.48;;;10.20;73.40;;;;;;5005723;28;20038;-78
2021/12/17 13:44:33;;;;;;;14.50;13.73;;;10.20;73.40;;;;;;5009271;28;20480;-78
2021/12/17 13:47:19;;;;;;;23.70;22.45;;;10.20;73.50;;;;;;5006783;28;20045;-77
2021/12/17 13:50:18;;;;;;;17.90;17.05;;;10.10;73.60;;;;;;5008864;28;20026;-78
2021/12/17 13:53:00;;;;;;;13.35;12.75;;;10.10;73.70;;;;;;4991565;28;20038;-77
2021/12/17 13:55:30;;;;;;;13.30;12.70;;;10.10;73.80;;;;;;5012549;28;20396;-78
2021/12/17 13:57:57;;;;;;;13.43;12.45;;;10.00;73.90;;;;;;5011787;28;20048;-78
2021/12/17 14:00:43;;;;;;;12.63;12.02;;;10.00;74.10;;;;;;5011383;28;20034;-78
2021/12/17 14:03:11;;;;;;;10.38;9.88;;;10.00;74.20;;;;;;5010100;28;20049;-78
2021/12/17 14:05:41;;;;;;;11.70;11.18;;;10.00;74.30;;;;;;5011529;28;20038;-77
2021/12/17 14:08:14;;;;;;;10.98;10.48;;;10.00;74.40;;;;;;4997531;28;20018;-78
2021/12/17 14:10:40;;;;;;;13.80;13.20;;;9.90;74.40;;;;;;5004487;28;20022;-77
2021/12/17 14:13:15;;;;;;;11.90;11.40;;;9.90;74.50;;;;;;4996175;28;20022;-77
2021/12/17 14:15:43;;;;;;;12.80;12.10;;;9.90;74.70;;;;;;5007763;28;20045;-77
2021/12/17 14:18:12;;;;;;;16.08;15.35;;;9.90;74.70;;;;;;5011332;28;20052;-78
2021/12/17 14:20:45;;;;;;;16.58;15.80;;;9.90;74.80;;;;;;4979377;28;20042;-77
2021/12/17 14:23:16;;;;;;;14.35;13.55;;;9.80;75.00;;;;;;4996149;28;20061;-78
2021/12/17 14:25:44;;;;;;;11.98;11.23;;;9.80;75.00;;;;;;4993311;28;20049;-78
2021/12/17 14:28:25;;;;;;;11.80;11.13;;;9.80;75.20;;;;;;5010810;28;20056;-78
2021/12/17 14:31:09;;;;;;;12.98;12.27;;;9.80;75.30;;;;;;5010769;28;20033;-78
2021/12/17 14:33:36;;;;;;;12.43;11.82;;;9.80;75.40;;;;;;5011148;28;20046;-78
2021/12/17 14:36:12;;;;;;;13.85;13.15;;;9.80;75.50;;;;;;5012267;28;20038;-78
2021/12/17 14:38:46;;;;;;;15.52;14.80;;;9.70;75.60;;;;;;5011529;28;20034;-78
2021/12/17 14:41:16;;;;;;;14.57;13.15;;;9.70;75.70;;;;;;5012706;28;20052;-78
2021/12/17 14:43:49;;;;;;;13.43;12.82;;;9.70;75.80;;;;;;5010022;28;20050;-78
2021/12/17 14:46:24;;;;;;;18.08;17.20;;;9.60;75.90;;;;;;5010425;28;20482;-78
2021/12/17 15:05:27;;;;;;;19.58;18.67;;;9.50;76.60;;;;;;5001016;28;20033;-80
2021/12/17 15:07:54;;;;;;;25.95;24.60;;;9.50;76.70;;;;;;5008362;28;20018;-78
2021/12/17 15:10:22;;;;;;;11.75;11.23;;;9.50;76.80;;;;;;5004931;28;20065;-78
2021/12/17 15:12:56;;;;;;;11.10;10.60;;;9.50;76.80;;;;;;5001938;28;20056;-78
2021/12/17 15:15:24;;;;;;;11.65;11.07;;;9.50;76.90;;;;;;4987381;28;20042;-79
2021/12/17 15:17:51;;;;;;;11.63;11.02;;;9.50;76.90;;;;;;4989553;28;20026;-79
2021/12/17 15:20:24;;;;;;;12.38;11.68;;;9.50;76.90;;;;;;5010072;28;20026;-78
2021/12/17 15:22:50;;;;;;;13.45;12.85;;;9.50;76.90;;;;;;5010866;28;20033;-78
2021/12/17 15:25:17;;;;;;;11.95;11.25;;;9.50;76.90;;;;;;4994938;28;20029;-78
2021/12/17 15:27:43;;;;;;;11.15;10.65;;;9.50;76.90;;;;;;4991587;28;20042;-79
2021/12/17 15:30:11;;;;;;;12.50;11.90;;;9.50;76.80;;;;;;4991143;28;20046;-78
2021/12/17 15:32:37;;;;;;;12.23;11.65;;;9.50;76.80;;;;;;4992642;28;20054;-79
2021/12/17 15:35:04;;;;;;;11.90;11.27;;;9.60;76.80;;;;;;5011578;28;20033;-80
2021/12/17 15:37:30;;;;;;;19.23;18.27;;;9.60;76.70;;;;;;5008224;28;20030;-81
2021/12/17 15:39:57;;;;;;;19.20;18.13;;;9.60;76.60;;;;;;5007792;28;20390;-80
2021/12/17 15:42:23;;;;;;;18.63;17.67;;;9.60;76.60;;;;;;5028136;28;20107;-81
2021/12/17 15:44:49;;;;;;;14.38;13.68;;;9.60;76.60;;;;;;5009520;28;20033;-81
2021/12/17 15:47:15;;;;;;;13.40;12.80;;;9.60;76.50;;;;;;5010712;28;20042;-78
2021/12/17 15:49:41;;;;;;;16.52;15.73;;;9.60;76.50;;;;;;5010606;28;20618;-80
2021/12/17 15:52:07;;;;;;;19.20;18.27;;;9.60;76.40;;;;;;5011188;28;20029;-80
2021/12/17 15:54:36;;;;;;;15.80;15.10;;;9.60;76.30;;;;;;5006491;28;20061;-77
2021/12/17 15:57:03;;;;;;;15.20;14.50;;;9.60;76.40;;;;;;4991032;28;20033;-77
2021/12/17 15:59:29;;;;;;;14.68;13.98;;;9.60;76.30;;;;;;5011081;28;20482;-78
2021/12/17 16:01:57;;;;;;;13.25;12.65;;;9.60;76.20;;;;;;5010352;28;20491;-78
2021/12/17 16:04:23;;;;;;;18.27;17.45;;;9.60;76.20;;;;;;4989096;28;20054;-78